Погода Старые Дорогина 2 недели

Минская область, Белоруссия

23 июля-05 августа
  • 23июля
    Сегодня
    +15°
    +28°
    Ясно и безоблачно
    ВремяПогодаТемператураВлажностьДавлениеВетер, м/сВероятность осадков
    00:00Ясно и безоблачно+18°C91 %747 мм1.9 м/с2 %
    03:00Ясно и безоблачно+15°C95 %747 мм1.7 м/с2 %
    06:00Ясно и безоблачно+15°C95 %748 мм2.0 м/с2 %
    09:00Ясно и безоблачно+22°C76 %748 мм2.3 м/с2 %
    12:00Ясно и безоблачно+26°C56 %748 мм3.5 м/с2 %
    15:00Ясно и безоблачно+27°C50 %748 мм3.6 м/с6 %
    18:00Ясно и безоблачно+26°C47 %747 мм3.1 м/с6 %
    21:00Ясно и безоблачно+23°C62 %748 мм1.8 м/с2 %
  • 24июля
    Среда
    +15°
    +28°
    Практически безоблачно
    ВремяПогодаТемператураВлажностьДавлениеВетер, м/сВероятность осадков
    00:00Ясно и безоблачно+19°C77 %748 мм1.9 м/с2 %
    03:00Ясно и безоблачно+17°C78 %747 мм2.2 м/с2 %
    06:00Практически безоблачно+15°C78 %747 мм2.1 м/с2 %
    09:00Небольшая облачность+22°C61 %747 мм1.7 м/с2 %
    12:00Практически безоблачно+26°C43 %747 мм2.6 м/с2 %
    15:00Практически безоблачно+27°C38 %746 мм2.0 м/с13 %
    18:00Ясно и безоблачно+26°C39 %745 мм2.6 м/с14 %
    21:00Ясно и безоблачно+24°C57 %745 мм2.9 м/с2 %
  • 25июля
    Четверг
    +16°
    +27°
    Небольшая облачность
    ВремяПогодаТемператураВлажностьДавлениеВетер, м/сВероятность осадков
    00:00Ясно и безоблачно+20°C61 %745 мм3.0 м/с2 %
    03:00Практически безоблачно+18°C64 %745 мм2.9 м/с1 %
    06:00Небольшая облачность+16°C66 %745 мм3.0 м/с2 %
    09:00Облачно с прояснениями+21°C52 %745 мм2.7 м/с2 %
    12:00Небольшая облачность+24°C37 %745 мм3.8 м/с4 %
    15:00Небольшая облачность+26°C33 %744 мм3.0 м/с8 %
    18:00Облачно с прояснениями+25°C30 %744 мм3.5 м/с8 %
    21:00Облачно с прояснениями+24°C36 %744 мм4.1 м/с5 %
  • 26июля
    Пятница
    +17°
    +28°
    Облачно с прояснениями
    ВремяПогодаТемператураВлажностьДавлениеВетер, м/сВероятность осадков
    00:00Небольшая облачность+18°C49 %745 мм3.5 м/с3 %
    03:00Практически безоблачно+17°C59 %745 мм2.6 м/с3 %
    06:00Ясно и безоблачно+16°C65 %746 мм2.6 м/с5 %
    09:00Облачно с прояснениями+21°C51 %746 мм2.7 м/с2 %
    12:00Облачно с прояснениями+25°C36 %747 мм2.0 м/с16 %
    15:00Облачно с прояснениями+27°C32 %747 мм1.7 м/с28 %
    18:00Облачно с прояснениями+27°C31 %748 мм1.2 м/с32 %
    21:00Небольшая облачность+24°C46 %748 мм2.7 м/с17 %
  • 27июля
    Суббота
    +16°
    +30°
    Облачно с прояснениями
    ВремяПогодаТемператураВлажностьДавлениеВетер, м/сВероятность осадков
    00:00Практически безоблачно+21°C55 %749 мм2.7 м/с21 %
    03:00Облачно с прояснениями+18°C70 %750 мм2.4 м/с14 %
    06:00Ясно и безоблачно+18°C75 %750 мм2.2 м/с13 %
    09:00Ясно и безоблачно+23°C57 %751 мм1.6 м/с8 %
    12:00Практически безоблачно+29°C34 %751 мм2.0 м/с16 %
    15:00Облачно с прояснениями+30°C33 %751 мм1.9 м/с22 %
    18:00Практически безоблачно+29°C33 %751 мм1.7 м/с35 %
    21:00Практически безоблачно+26°C48 %751 мм2.8 м/с11 %
Мы используем cookies
Соглашаюсь